createdAt,value
2023-05-01T03:47:58.742Z,864.55
2023-05-01T03:50:25.506Z,860.08
2023-05-01T03:52:52.144Z,858.85
2023-05-01T03:55:18.860Z,858.58
2023-05-01T03:57:47.171Z,858.85
2023-05-01T04:00:14.193Z,856.95
2023-05-01T04:02:40.996Z,863.53
2023-05-01T04:05:08.238Z,861.03
2023-05-01T04:07:35.059Z,863.47
2023-05-01T04:10:01.720Z,864.95
2023-05-01T04:12:28.364Z,857.53
2023-05-01T04:14:55.014Z,854.95
2023-05-01T04:17:21.681Z,862.55
2023-05-01T04:19:48.655Z,858.70
2023-05-01T04:22:16.059Z,855.33
2023-05-01T04:24:42.662Z,858.65
2023-05-01T04:27:09.391Z,852.65
2023-05-01T04:29:36.414Z,856.67
2023-05-01T04:32:03.219Z,857.05
2023-05-01T04:34:30.080Z,857.42
2023-05-01T04:36:59.993Z,852.60
2023-05-01T04:39:26.687Z,860.37
2023-05-01T04:41:53.332Z,856.08
2023-05-01T04:44:20.583Z,858.83
2023-05-01T04:46:47.280Z,856.53
2023-05-01T04:49:14.376Z,858.95
2023-05-01T04:51:41.021Z,861.08
2023-05-01T04:54:07.638Z,856.70
2023-05-01T04:56:34.772Z,854.65
2023-05-01T04:59:01.753Z,856.83
2023-05-01T05:01:28.414Z,855.15
2023-05-01T05:03:55.197Z,852.72
2023-05-01T05:06:22.508Z,855.47
2023-05-01T05:08:52.005Z,857.22
2023-05-01T05:11:19.296Z,857.13
2023-05-01T05:13:46.265Z,857.40
2023-05-01T05:16:13.324Z,863.00
2023-05-01T05:18:40.789Z,857.95
2023-05-01T05:21:08.603Z,858.58
2023-05-01T05:23:35.216Z,858.22
2023-05-01T05:26:02.169Z,857.75
2023-05-01T05:28:29.296Z,855.58
2023-05-01T05:30:57.060Z,858.28
2023-05-01T05:33:24.976Z,864.22
2023-05-01T05:35:52.452Z,862.45
2023-05-01T05:38:19.269Z,859.50
2023-05-01T05:40:46.141Z,863.40
2023-05-01T05:43:12.807Z,862.42
2023-05-01T05:45:39.790Z,862.78
2023-05-01T05:48:06.850Z,861.25
2023-05-01T05:50:33.712Z,856.92
2023-05-01T05:53:00.284Z,869.38
2023-05-01T05:55:28.045Z,863.08
2023-05-01T05:57:54.733Z,866.40
2023-05-01T06:00:21.511Z,870.40
2023-05-01T06:02:48.573Z,868.08
2023-05-01T06:05:15.367Z,873.53
2023-05-01T06:07:42.359Z,867.08
2023-05-01T06:10:09.705Z,869.78
2023-05-01T06:12:37.707Z,878.80
2023-05-01T06:15:09.104Z,872.05
2023-05-01T06:17:37.471Z,874.22
2023-05-01T06:20:06.168Z,882.40
2023-05-01T06:22:32.817Z,877.25
2023-05-01T06:24:59.472Z,884.17
2023-05-01T06:27:26.188Z,882.83
2023-05-01T06:29:52.804Z,890.60
2023-05-01T06:32:19.482Z,903.13
2023-05-01T06:34:46.065Z,898.00
2023-05-01T06:37:12.924Z,897.08
2023-05-01T06:39:39.620Z,904.88
2023-05-01T06:42:07.676Z,910.88
2023-05-01T06:44:34.423Z,911.05
2023-05-01T06:47:01.735Z,906.97
2023-05-01T06:49:28.529Z,908.78
2023-05-01T06:51:55.679Z,913.83
2023-05-01T06:54:22.770Z,912.85
2023-05-01T06:56:49.376Z,914.33
2023-05-01T06:59:15.978Z,910.47
2023-05-01T07:01:42.675Z,915.50
2023-05-01T07:04:09.458Z,916.30
2023-05-01T07:06:36.557Z,902.05
2023-05-01T07:09:04.148Z,897.97
2023-05-01T07:11:31.043Z,896.30
2023-05-01T07:13:57.882Z,878.83
2023-05-01T07:16:24.739Z,878.85
2023-05-01T07:18:51.445Z,879.00
2023-05-01T07:21:18.085Z,875.05
2023-05-01T07:23:44.862Z,871.53
2023-05-01T07:26:11.592Z,870.35
2023-05-01T07:28:38.817Z,868.08
2023-05-01T07:31:05.416Z,870.15
2023-05-01T07:33:32.081Z,867.88
2023-05-01T07:35:58.658Z,865.30
2023-05-01T07:38:25.356Z,867.58
2023-05-01T07:40:55.942Z,865.53
2023-05-01T07:43:23.181Z,855.55
2023-05-01T07:45:57.655Z,869.93
2023-05-01T07:48:24.767Z,869.40
2023-05-01T07:50:51.610Z,867.22
2023-05-01T07:53:18.665Z,872.90
2023-05-01T07:55:45.311Z,869.80
2023-05-01T07:58:11.898Z,867.33
2023-05-01T08:00:38.606Z,872.53
2023-05-01T08:03:05.295Z,874.37
2023-05-01T08:05:32.182Z,874.28
2023-05-01T08:07:58.781Z,873.22
2023-05-01T08:10:26.409Z,878.47
2023-05-01T08:12:53.048Z,884.00
2023-05-01T08:15:21.500Z,898.10
2023-05-01T08:17:48.141Z,901.30
2023-05-01T08:20:14.863Z,910.87
2023-05-01T08:22:41.474Z,915.70
2023-05-01T08:25:08.548Z,920.73
2023-05-01T08:27:35.324Z,922.65
2023-05-01T08:30:01.910Z,918.60
2023-05-01T08:32:28.619Z,916.22
2023-05-01T08:34:55.285Z,917.70
2023-05-01T08:37:22.131Z,925.33
2023-05-01T08:39:48.794Z,924.63
2023-05-01T08:42:15.752Z,928.58
2023-05-01T08:44:45.572Z,927.83
2023-05-01T08:47:16.283Z,922.75
2023-05-01T08:49:44.744Z,923.22
2023-05-01T08:52:13.045Z,918.08
2023-05-01T08:54:42.945Z,922.08
2023-05-01T08:57:11.952Z,920.28
2023-05-01T08:59:39.998Z,912.67
2023-05-01T09:02:08.528Z,907.10
2023-05-01T09:04:39.045Z,900.63
2023-05-01T09:07:05.701Z,896.07
2023-05-01T09:09:33.172Z,883.35
2023-05-01T09:12:27.803Z,882.03
2023-05-01T09:14:56.502Z,880.87
2023-05-01T09:17:24.346Z,881.43
2023-05-01T09:19:52.053Z,877.08
2023-05-01T09:22:19.502Z,879.55
2023-05-01T09:24:47.013Z,873.83
2023-05-01T09:27:14.561Z,880.60
2023-05-01T09:29:46.380Z,888.83
2023-05-01T09:32:17.640Z,882.80
2023-05-01T09:34:44.719Z,888.65
2023-05-01T09:37:14.435Z,887.77
2023-05-01T09:39:41.076Z,905.30
2023-05-01T09:42:08.017Z,917.57
2023-05-01T09:44:42.323Z,917.15
2023-05-01T09:47:09.668Z,925.40
2023-05-01T09:49:45.653Z,929.45
2023-05-01T09:52:12.323Z,931.90
2023-05-01T09:54:39.012Z,929.53
2023-05-01T09:57:06.336Z,921.95
2023-05-01T09:59:34.895Z,921.40
2023-05-01T10:02:01.649Z,926.65
2023-05-01T10:04:32.992Z,919.45
2023-05-01T10:07:14.825Z,927.00
2023-05-01T10:09:42.212Z,918.95
2023-05-01T10:12:08.889Z,921.03
2023-05-01T10:14:53.704Z,925.65
2023-05-01T10:17:21.171Z,919.45
2023-05-01T10:19:48.677Z,913.33
2023-05-01T10:22:16.266Z,917.58
2023-05-01T10:24:45.451Z,914.45
2023-05-01T10:27:13.138Z,910.28
2023-05-01T10:29:44.555Z,908.05
2023-05-01T10:32:11.465Z,913.20
2023-05-01T10:34:43.547Z,918.15
2023-05-01T10:37:13.922Z,918.05
2023-05-01T10:39:40.651Z,920.00
2023-05-01T10:42:13.943Z,918.83
2023-05-01T10:44:42.246Z,921.17
2023-05-01T10:47:34.653Z,923.90
2023-05-01T10:50:09.700Z,926.87
2023-05-01T10:53:14.473Z,924.22
2023-05-01T10:55:48.992Z,925.28
2023-05-01T10:58:37.467Z,927.10
2023-05-01T11:01:36.738Z,933.00
2023-05-01T11:04:27.537Z,931.75
2023-05-01T11:07:08.121Z,927.35
2023-05-01T11:09:42.584Z,925.00
2023-05-01T11:12:11.257Z,926.00
2023-05-01T11:15:03.545Z,929.53
2023-05-01T11:17:42.618Z,933.60
2023-05-01T11:20:33.944Z,935.35
2023-05-01T11:23:00.530Z,946.03
2023-05-01T11:25:30.611Z,950.40
2023-05-01T11:27:59.628Z,944.90
2023-05-01T11:30:26.387Z,948.22
2023-05-01T11:32:53.091Z,950.95
2023-05-01T11:35:22.831Z,956.83
2023-05-01T11:37:51.407Z,959.08
2023-05-01T11:40:31.616Z,950.95
2023-05-01T11:43:08.603Z,956.45
2023-05-01T11:45:37.190Z,949.47
2023-05-01T11:48:05.323Z,942.15
2023-05-01T11:50:39.008Z,946.80
2023-05-01T11:53:11.991Z,942.00
2023-05-01T11:55:39.975Z,939.70
2023-05-01T11:58:06.990Z,937.65
2023-05-01T12:00:37.293Z,942.73
2023-05-01T12:03:12.013Z,937.67
2023-05-01T12:05:42.210Z,938.33
2023-05-01T12:08:18.699Z,937.87
2023-05-01T12:10:56.997Z,929.58
2023-05-01T12:13:24.952Z,934.13
2023-05-01T12:15:54.215Z,927.95
2023-05-01T12:18:22.292Z,944.78
2023-05-01T12:20:51.840Z,942.08
2023-05-01T12:23:20.555Z,939.40
2023-05-01T12:25:47.352Z,944.42
2023-05-01T12:28:19.348Z,942.35
2023-05-01T12:30:48.021Z,947.97
2023-05-01T12:33:22.586Z,943.15
2023-05-01T12:35:50.601Z,944.55
2023-05-01T12:38:21.844Z,939.85
2023-05-01T12:40:56.913Z,938.72
2023-05-01T12:43:34.331Z,944.53
2023-05-01T12:46:02.264Z,935.78
2023-05-01T12:48:30.500Z,940.38
2023-05-01T12:50:57.588Z,943.13
2023-05-01T12:53:26.110Z,948.85
2023-05-01T12:55:57.378Z,951.58
2023-05-01T12:58:34.796Z,943.03
2023-05-01T13:01:01.584Z,956.75
2023-05-01T13:03:29.650Z,967.95
2023-05-01T13:06:00.366Z,968.10
2023-05-01T13:08:32.487Z,963.63
2023-05-01T13:11:03.967Z,972.60
2023-05-01T13:13:34.888Z,977.45
2023-05-01T13:16:27.645Z,981.83
2023-05-01T13:18:54.513Z,972.28
2023-05-01T13:21:23.002Z,959.47
2023-05-01T13:23:56.901Z,955.97
2023-05-01T13:26:32.936Z,952.35
2023-05-01T13:29:01.719Z,959.83
2023-05-01T13:31:28.633Z,957.58
2023-05-01T13:33:57.908Z,949.33
2023-05-01T13:36:26.577Z,941.38
2023-05-01T13:38:56.457Z,939.50
2023-05-01T13:41:28.948Z,945.20
2023-05-01T13:43:57.315Z,952.28
2023-05-01T13:46:27.068Z,956.22
2023-05-01T13:48:53.973Z,955.15
2023-05-01T13:51:24.987Z,955.45
2023-05-01T13:53:53.461Z,948.30
2023-05-01T13:56:21.570Z,948.90
2023-05-01T13:58:48.594Z,944.67
2023-05-01T14:01:18.565Z,947.30
2023-05-01T14:03:45.368Z,943.92
2023-05-01T14:06:17.501Z,941.58
2023-05-01T14:08:46.246Z,937.50
2023-05-01T14:11:13.373Z,936.38
2023-05-01T14:13:41.594Z,927.45
2023-05-01T14:16:12.965Z,928.10
2023-05-01T14:18:47.268Z,929.42
2023-05-01T14:21:15.775Z,919.85
2023-05-01T14:23:42.680Z,915.65
2023-05-01T14:26:11.293Z,895.73
2023-05-01T14:28:46.105Z,890.50
2023-05-01T14:31:21.489Z,885.88
2023-05-01T14:33:54.369Z,879.58
2023-05-01T14:36:20.943Z,875.15
2023-05-01T14:38:49.287Z,868.10
2023-05-01T14:41:19.435Z,868.63
2023-05-01T14:43:46.885Z,878.50
2023-05-01T14:46:15.919Z,880.97
2023-05-01T14:48:42.717Z,880.85
2023-05-01T14:51:12.364Z,875.28
2023-05-01T14:53:44.424Z,869.72
2023-05-01T14:56:12.050Z,873.55
2023-05-01T14:58:38.918Z,865.67
2023-05-01T15:01:06.031Z,859.80
2023-05-01T15:03:36.197Z,865.70
2023-05-01T15:06:04.040Z,867.65
2023-05-01T15:08:32.379Z,858.88
2023-05-01T15:10:59.446Z,876.00
2023-05-01T15:13:26.210Z,860.08
2023-05-01T15:15:52.970Z,862.40
2023-05-01T15:18:19.635Z,871.90
2023-05-01T15:20:46.462Z,878.90
2023-05-01T15:23:13.056Z,876.58
2023-05-01T15:25:39.714Z,882.10
2023-05-01T15:28:06.330Z,884.38
2023-05-01T15:30:33.024Z,898.90
2023-05-01T15:32:59.680Z,891.80
2023-05-01T15:35:26.726Z,893.45
2023-05-01T15:37:53.974Z,910.47
2023-05-01T15:40:20.588Z,901.47
2023-05-01T15:42:48.411Z,909.47
2023-05-01T15:45:15.076Z,903.22
2023-05-01T15:47:41.740Z,906.83
2023-05-01T15:50:13.404Z,910.75
2023-05-01T15:52:40.610Z,911.67
2023-05-01T15:55:07.620Z,916.47
2023-05-01T15:57:35.101Z,917.58
2023-05-01T16:00:02.183Z,926.60
2023-05-01T16:02:32.515Z,920.65
2023-05-01T16:05:00.321Z,920.78
2023-05-01T16:07:29.199Z,911.65
2023-05-01T16:09:57.527Z,911.70
2023-05-01T16:12:24.594Z,905.27
2023-05-01T16:14:51.375Z,889.67
2023-05-01T16:17:19.466Z,893.75
2023-05-01T16:19:46.676Z,881.92
2023-05-01T16:22:15.010Z,888.83
2023-05-01T16:24:41.757Z,883.87
2023-05-01T16:27:12.715Z,884.90
2023-05-01T16:29:39.504Z,905.58
2023-05-01T16:32:06.444Z,904.72
2023-05-01T16:34:33.175Z,909.10
2023-05-01T16:36:59.861Z,910.00
2023-05-01T16:39:26.697Z,911.97
2023-05-01T16:41:54.372Z,915.70
2023-05-01T16:44:22.695Z,913.58
2023-05-01T16:46:54.985Z,910.33
2023-05-01T16:49:22.984Z,917.92
2023-05-01T16:51:50.173Z,917.25
2023-05-01T16:54:18.376Z,911.00
2023-05-01T16:56:44.986Z,916.10
2023-05-01T16:59:11.651Z,906.70
2023-05-01T17:01:38.299Z,908.03
2023-05-01T17:04:05.209Z,911.45
2023-05-01T17:06:32.394Z,911.30
2023-05-01T17:08:59.068Z,901.90
2023-05-01T17:11:25.720Z,913.13
2023-05-01T17:13:52.558Z,908.55
2023-05-01T17:16:19.429Z,907.45
2023-05-01T17:18:46.573Z,910.65
2023-05-01T17:21:13.168Z,912.58
2023-05-01T17:23:39.817Z,908.70
2023-05-01T17:26:06.768Z,911.75
2023-05-01T17:28:33.373Z,905.20
2023-05-01T17:30:59.997Z,905.03
2023-05-01T17:33:30.188Z,912.55
2023-05-01T17:35:59.638Z,910.65
2023-05-01T17:38:26.717Z,915.90
2023-05-01T17:40:53.389Z,912.55
2023-05-01T17:43:20.715Z,908.53
2023-05-01T17:45:47.913Z,910.92
2023-05-01T17:48:14.632Z,912.42
2023-05-01T17:50:41.388Z,908.15
2023-05-01T17:53:09.351Z,915.72
2023-05-01T17:55:38.234Z,915.38
2023-05-01T17:58:04.965Z,909.63
2023-05-01T18:00:32.321Z,907.92
2023-05-01T18:02:59.203Z,902.23
2023-05-01T18:05:26.065Z,883.63
2023-05-01T18:07:52.675Z,881.40
2023-05-01T18:10:19.329Z,877.38
2023-05-01T18:12:47.067Z,868.20
2023-05-01T18:15:15.883Z,858.35
2023-05-01T18:17:46.176Z,862.10
2023-05-01T18:20:12.904Z,852.45
2023-05-01T18:22:39.532Z,847.58
2023-05-01T18:25:07.066Z,852.63
2023-05-01T18:27:33.733Z,854.65
2023-05-01T18:30:01.013Z,845.55
2023-05-01T18:32:43.352Z,831.35
2023-05-01T18:35:13.839Z,840.47
2023-05-01T18:37:42.299Z,833.10
2023-05-01T18:40:09.735Z,841.07
2023-05-01T18:42:36.541Z,824.10
2023-05-01T18:45:03.988Z,821.78
2023-05-01T18:47:32.416Z,825.83
2023-05-01T18:49:59.868Z,817.27
2023-05-01T18:52:28.038Z,815.43
2023-05-01T18:54:54.754Z,815.03
2023-05-01T18:57:22.113Z,815.03
2023-05-01T18:59:48.709Z,819.25
2023-05-01T19:02:15.464Z,814.97
2023-05-01T19:04:56.150Z,803.78
2023-05-01T19:07:26.296Z,807.15
2023-05-01T19:09:53.219Z,809.15
2023-05-01T19:12:19.843Z,805.30
2023-05-01T19:14:46.512Z,817.67
2023-05-01T19:17:13.136Z,803.55
2023-05-01T19:19:39.805Z,805.83
2023-05-01T19:22:07.160Z,802.30
2023-05-01T19:24:33.891Z,806.17
2023-05-01T19:27:03.173Z,815.38
2023-05-01T19:29:33.450Z,801.83
2023-05-01T19:32:00.263Z,810.08
2023-05-01T19:34:27.836Z,813.90
2023-05-01T19:36:56.888Z,811.70
2023-05-01T19:39:24.253Z,807.63
2023-05-01T19:41:51.164Z,819.70
2023-05-01T19:44:18.032Z,823.65
2023-05-01T19:46:45.043Z,833.58
2023-05-01T19:49:12.058Z,842.50
2023-05-01T19:51:39.128Z,841.30
2023-05-01T19:54:05.919Z,837.08
2023-05-01T19:56:32.556Z,846.08
2023-05-01T19:58:59.206Z,848.63
2023-05-01T20:01:25.963Z,848.33
2023-05-01T20:03:52.757Z,856.85
2023-05-01T20:06:19.518Z,851.45
2023-05-01T20:08:47.077Z,851.03
2023-05-01T20:11:13.966Z,844.60
2023-05-01T20:13:40.686Z,855.07
2023-05-01T20:16:09.489Z,847.17
2023-05-01T20:18:36.419Z,850.22
2023-05-01T20:21:03.090Z,848.28
2023-05-01T20:23:29.733Z,840.42
2023-05-01T20:25:56.534Z,842.38
2023-05-01T20:28:23.473Z,850.30
2023-05-01T20:30:50.270Z,853.28
2023-05-01T20:33:17.643Z,854.20
2023-05-01T20:35:45.208Z,841.83
2023-05-01T20:38:11.949Z,848.45
2023-05-01T20:40:40.360Z,849.50
2023-05-01T20:43:07.265Z,849.72
2023-05-01T20:45:34.162Z,850.17
2023-05-01T20:48:01.785Z,857.92
2023-05-01T20:50:29.123Z,853.10
2023-05-01T20:52:56.171Z,852.33
2023-05-01T20:55:23.705Z,844.80
2023-05-01T20:57:50.541Z,837.77
2023-05-01T21:00:17.241Z,836.42
2023-05-01T21:02:44.136Z,831.97
2023-05-01T21:05:10.941Z,849.13
2023-05-01T21:07:41.094Z,838.83
2023-05-01T21:10:10.065Z,844.50
2023-05-01T21:12:37.293Z,845.17
2023-05-01T21:15:04.684Z,844.13
2023-05-01T21:17:33.220Z,828.35
2023-05-01T21:20:00.331Z,823.60
2023-05-01T21:22:27.919Z,821.80
2023-05-01T21:24:57.520Z,812.47
2023-05-01T21:27:25.671Z,809.80
2023-05-01T21:29:58.040Z,811.78
2023-05-01T21:32:39.928Z,810.25
2023-05-01T21:35:08.085Z,813.13
2023-05-01T21:37:34.732Z,815.80
2023-05-01T21:40:02.365Z,823.95
2023-05-01T21:42:35.660Z,818.13
2023-05-01T21:45:10.162Z,818.40
2023-05-01T21:47:48.148Z,811.13
2023-05-01T21:50:16.834Z,829.17
2023-05-01T21:52:45.595Z,820.15
2023-05-01T21:55:17.932Z,827.75
2023-05-01T21:57:44.912Z,822.72
2023-05-01T22:00:12.535Z,833.38
2023-05-01T22:02:44.432Z,824.70
2023-05-01T22:05:13.203Z,823.33
2023-05-01T22:07:41.469Z,838.53
2023-05-01T22:10:10.378Z,830.97
2023-05-01T22:12:37.555Z,824.45
2023-05-01T22:15:04.625Z,827.58
2023-05-01T22:17:31.306Z,833.40
2023-05-01T22:19:58.127Z,836.25
2023-05-01T22:22:25.089Z,838.13
2023-05-01T22:24:51.723Z,835.05
2023-05-01T22:27:18.407Z,836.83
2023-05-01T22:29:44.997Z,827.38
2023-05-01T22:32:11.823Z,821.65
2023-05-01T22:34:38.568Z,824.00
2023-05-01T22:37:05.392Z,837.33
2023-05-01T22:39:33.506Z,822.72
2023-05-01T22:42:00.378Z,828.78
2023-05-01T22:44:27.626Z,840.53
2023-05-01T22:46:54.517Z,830.55
2023-05-01T22:49:21.550Z,836.60
2023-05-01T22:51:48.245Z,829.47
2023-05-01T22:54:14.878Z,832.78
2023-05-01T22:56:41.496Z,828.45
2023-05-01T22:59:08.083Z,832.50
